sensor_id;sensor_type;location;lat;lon;timestamp;pressure;altitude;pressure_sealevel;temperature;humidity
61682;BME280;47577;43.610;25.010;2023-10-08T00:01:41;100556.28;;;16.37;42.23
61682;BME280;47577;43.610;25.010;2023-10-08T00:04:08;100563.16;;;16.43;42.73
61682;BME280;47577;43.610;25.010;2023-10-08T00:06:35;100568.84;;;16.37;42.52
61682;BME280;47577;43.610;25.010;2023-10-08T00:09:03;100561.94;;;16.33;42.51
61682;BME280;47577;43.610;25.010;2023-10-08T00:11:34;100565.72;;;16.29;42.55
61682;BME280;47577;43.610;25.010;2023-10-08T00:14:00;100560.44;;;16.27;42.88
61682;BME280;47577;43.610;25.010;2023-10-08T00:16:26;100568.56;;;16.25;42.42
61682;BME280;47577;43.610;25.010;2023-10-08T00:18:53;100562.88;;;16.32;42.16
61682;BME280;47577;43.610;25.010;2023-10-08T00:21:24;100570.16;;;16.30;43.11
61682;BME280;47577;43.610;25.010;2023-10-08T00:23:53;100561.81;;;16.18;42.85
61682;BME280;47577;43.610;25.010;2023-10-08T00:26:22;100563.69;;;16.16;42.26
61682;BME280;47577;43.610;25.010;2023-10-08T00:28:59;100570.56;;;16.22;43.20
61682;BME280;47577;43.610;25.010;2023-10-08T00:31:26;100563.94;;;16.12;42.90
61682;BME280;47577;43.610;25.010;2023-10-08T00:34:04;100561.47;;;16.08;42.48
61682;BME280;47577;43.610;25.010;2023-10-08T00:36:37;100537.91;;;15.98;42.69
61682;BME280;47577;43.610;25.010;2023-10-08T00:39:04;100551.13;;;16.01;43.54
61682;BME280;47577;43.610;25.010;2023-10-08T00:41:35;100546.56;;;16.03;43.20
61682;BME280;47577;43.610;25.010;2023-10-08T00:44:07;100551.06;;;16.02;42.66
61682;BME280;47577;43.610;25.010;2023-10-08T00:46:33;100539.16;;;15.90;43.57
61682;BME280;47577;43.610;25.010;2023-10-08T00:49:04;100535.78;;;15.87;42.96
61682;BME280;47577;43.610;25.010;2023-10-08T00:51:50;100547.94;;;15.94;42.66
61682;BME280;47577;43.610;25.010;2023-10-08T00:54:35;100554.97;;;15.79;43.32
61682;BME280;47577;43.610;25.010;2023-10-08T00:57:28;100533.75;;;15.75;43.75
61682;BME280;47577;43.610;25.010;2023-10-08T00:59:55;100538.88;;;15.62;43.28
61682;BME280;47577;43.610;25.010;2023-10-08T01:02:26;100545.72;;;15.67;44.38
61682;BME280;47577;43.610;25.010;2023-10-08T01:04:54;100537.13;;;15.61;44.20
61682;BME280;47577;43.610;25.010;2023-10-08T01:07:24;100532.19;;;15.53;44.12
61682;BME280;47577;43.610;25.010;2023-10-08T01:09:50;100541.25;;;15.50;43.16
61682;BME280;47577;43.610;25.010;2023-10-08T01:12:21;100534.41;;;15.45;43.86
61682;BME280;47577;43.610;25.010;2023-10-08T01:14:47;100524.50;;;15.47;44.55
61682;BME280;47577;43.610;25.010;2023-10-08T01:17:16;100524.50;;;15.47;44.62
61682;BME280;47577;43.610;25.010;2023-10-08T01:19:47;100527.94;;;15.49;43.56
61682;BME280;47577;43.610;25.010;2023-10-08T01:22:16;100526.91;;;15.51;43.42
61682;BME280;47577;43.610;25.010;2023-10-08T01:24:45;100509.34;;;15.28;44.28
61682;BME280;47577;43.610;25.010;2023-10-08T01:27:20;100528.25;;;15.43;43.53
61682;BME280;47577;43.610;25.010;2023-10-08T01:32:24;100511.09;;;15.29;44.00
61682;BME280;47577;43.610;25.010;2023-10-08T01:34:50;100521.56;;;15.34;43.69
61682;BME280;47577;43.610;25.010;2023-10-08T01:37:17;100519.84;;;15.33;44.10
61682;BME280;47577;43.610;25.010;2023-10-08T01:39:46;100514.63;;;15.30;44.41
61682;BME280;47577;43.610;25.010;2023-10-08T01:42:16;100515.63;;;15.27;44.86
61682;BME280;47577;43.610;25.010;2023-10-08T01:44:49;100522.66;;;15.30;45.25
61682;BME280;47577;43.610;25.010;2023-10-08T01:47:20;100509.34;;;15.28;44.69
61682;BME280;47577;43.610;25.010;2023-10-08T01:49:46;100503.84;;;15.31;44.35
61682;BME280;47577;43.610;25.010;2023-10-08T01:52:14;100499.03;;;15.38;44.87
61682;BME280;47577;43.610;25.010;2023-10-08T01:54:47;100485.25;;;15.28;44.03
61682;BME280;47577;43.610;25.010;2023-10-08T01:57:14;100501.94;;;15.33;44.12
61682;BME280;47577;43.610;25.010;2023-10-08T01:59:40;100480.34;;;15.19;45.52
61682;BME280;47577;43.610;25.010;2023-10-08T02:02:06;100493.13;;;15.14;46.09
61682;BME280;47577;43.610;25.010;2023-10-08T02:04:33;100479.19;;;15.07;44.88
61682;BME280;47577;43.610;25.010;2023-10-08T02:07:01;100485.41;;;15.08;46.76
61682;BME280;47577;43.610;25.010;2023-10-08T02:09:29;100484.63;;;15.06;45.25
61682;BME280;47577;43.610;25.010;2023-10-08T02:11:55;100475.03;;;15.02;46.39
61682;BME280;47577;43.610;25.010;2023-10-08T02:14:22;100480.13;;;15.06;45.30
61682;BME280;47577;43.610;25.010;2023-10-08T02:16:51;100486.28;;;15.08;45.05
61682;BME280;47577;43.610;25.010;2023-10-08T02:19:22;100489.03;;;15.07;45.62
61682;BME280;47577;43.610;25.010;2023-10-08T02:21:55;100496.69;;;15.14;45.45
61682;BME280;47577;43.610;25.010;2023-10-08T02:24:22;100477.28;;;15.09;46.25
61682;BME280;47577;43.610;25.010;2023-10-08T02:26:54;100482.56;;;15.11;45.45
61682;BME280;47577;43.610;25.010;2023-10-08T02:29:25;100476.44;;;15.09;46.14
61682;BME280;47577;43.610;25.010;2023-10-08T02:31:51;100460.53;;;15.06;45.91
61682;BME280;47577;43.610;25.010;2023-10-08T02:34:18;100468.78;;;15.01;45.49
61682;BME280;47577;43.610;25.010;2023-10-08T02:36:45;100478.88;;;15.13;45.82
61682;BME280;47577;43.610;25.010;2023-10-08T02:39:13;100477.50;;;15.05;45.96
61682;BME280;47577;43.610;25.010;2023-10-08T02:41:51;100475.88;;;15.02;45.78
61682;BME280;47577;43.610;25.010;2023-10-08T02:44:18;100478.47;;;15.04;46.22
61682;BME280;47577;43.610;25.010;2023-10-08T02:46:48;100473.97;;;15.04;46.52
61682;BME280;47577;43.610;25.010;2023-10-08T02:49:15;100479.97;;;15.09;46.73
61682;BME280;47577;43.610;25.010;2023-10-08T02:51:50;100467.31;;;15.13;47.18
61682;BME280;47577;43.610;25.010;2023-10-08T02:54:20;100480.28;;;15.21;46.81
61682;BME280;47577;43.610;25.010;2023-10-08T02:56:50;100476.75;;;15.20;47.09
61682;BME280;47577;43.610;25.010;2023-10-08T02:59:29;100464.13;;;15.22;47.13
61682;BME280;47577;43.610;25.010;2023-10-08T03:02:05;100467.63;;;15.24;47.44
61682;BME280;47577;43.610;25.010;2023-10-08T03:04:41;100474.13;;;15.36;46.97
61682;BME280;47577;43.610;25.010;2023-10-08T03:07:07;100477.13;;;15.30;47.06
61682;BME280;47577;43.610;25.010;2023-10-08T03:09:37;100467.19;;;15.32;47.13
61682;BME280;47577;43.610;25.010;2023-10-08T03:12:07;100477.75;;;15.35;47.39
61682;BME280;47577;43.610;25.010;2023-10-08T03:14:35;100472.31;;;15.36;46.90
61682;BME280;47577;43.610;25.010;2023-10-08T03:17:14;100464.44;;;15.33;47.15
61682;BME280;47577;43.610;25.010;2023-10-08T03:19:46;100480.81;;;15.27;47.05
61682;BME280;47577;43.610;25.010;2023-10-08T03:22:12;100475.97;;;15.18;47.14
61682;BME280;47577;43.610;25.010;2023-10-08T03:24:38;100473.53;;;15.13;47.85
61682;BME280;47577;43.610;25.010;2023-10-08T03:27:05;100475.06;;;15.17;47.92
61682;BME280;47577;43.610;25.010;2023-10-08T03:29:46;100479.72;;;15.14;48.14
61682;BME280;47577;43.610;25.010;2023-10-08T03:32:13;100481.16;;;15.21;48.43
61682;BME280;47577;43.610;25.010;2023-10-08T03:34:48;100474.91;;;15.21;47.41
61682;BME280;47577;43.610;25.010;2023-10-08T03:37:18;100464.22;;;15.21;48.15
61682;BME280;47577;43.610;25.010;2023-10-08T03:39:50;100457.22;;;15.01;47.47
61682;BME280;47577;43.610;25.010;2023-10-08T03:42:24;100465.56;;;15.12;48.14
61682;BME280;47577;43.610;25.010;2023-10-08T03:44:51;100477.06;;;15.14;47.06
61682;BME280;47577;43.610;25.010;2023-10-08T03:47:23;100468.63;;;15.04;47.16
61682;BME280;47577;43.610;25.010;2023-10-08T03:49:52;100482.63;;;15.09;46.62
61682;BME280;47577;43.610;25.010;2023-10-08T03:52:19;100476.34;;;15.10;46.74
61682;BME280;47577;43.610;25.010;2023-10-08T03:54:49;100459.34;;;14.94;47.02
61682;BME280;47577;43.610;25.010;2023-10-08T03:57:25;100470.91;;;14.94;47.75
61682;BME280;47577;43.610;25.010;2023-10-08T04:00:10;100462.03;;;14.94;47.25
61682;BME280;47577;43.610;25.010;2023-10-08T04:02:47;100468.00;;;14.99;47.29
61682;BME280;47577;43.610;25.010;2023-10-08T04:05:28;100464.78;;;14.92;46.65
61682;BME280;47577;43.610;25.010;2023-10-08T04:08:06;100465.72;;;14.91;46.72
61682;BME280;47577;43.610;25.010;2023-10-08T04:10:42;100466.19;;;14.99;46.96
61682;BME280;47577;43.610;25.010;2023-10-08T04:13:08;100448.31;;;14.83;47.08
61682;BME280;47577;43.610;25.010;2023-10-08T04:15:40;100470.22;;;14.91;46.64
61682;BME280;47577;43.610;25.010;2023-10-08T04:18:09;100466.19;;;14.99;47.60
61682;BME280;47577;43.610;25.010;2023-10-08T04:20:36;100464.47;;;14.98;46.51
61682;BME280;47577;43.610;25.010;2023-10-08T04:23:07;100465.41;;;14.97;46.20
61682;BME280;47577;43.610;25.010;2023-10-08T04:25:43;100454.69;;;14.97;46.24
61682;BME280;47577;43.610;25.010;2023-10-08T04:28:10;100455.88;;;14.92;47.00
61682;BME280;47577;43.610;25.010;2023-10-08T04:30:42;100450.94;;;15.02;45.97
61682;BME280;47577;43.610;25.010;2023-10-08T04:33:10;100450.03;;;15.01;45.65
61682;BME280;47577;43.610;25.010;2023-10-08T04:35:40;100443.69;;;15.04;47.50
61682;BME280;47577;43.610;25.010;2023-10-08T04:38:20;100454.31;;;15.05;45.94
61682;BME280;47577;43.610;25.010;2023-10-08T04:40:48;100451.88;;;15.01;47.37
61682;BME280;47577;43.610;25.010;2023-10-08T04:43:22;100444.69;;;15.01;46.06
61682;BME280;47577;43.610;25.010;2023-10-08T04:45:54;100445.00;;;15.12;45.64
61682;BME280;47577;43.610;25.010;2023-10-08T04:48:26;100440.53;;;15.13;46.58
61682;BME280;47577;43.610;25.010;2023-10-08T04:50:59;100449.09;;;15.20;45.88
61682;BME280;47577;43.610;25.010;2023-10-08T04:53:32;100448.28;;;15.35;46.47
61682;BME280;47577;43.610;25.010;2023-10-08T04:56:02;100447.88;;;15.43;44.58
61682;BME280;47577;43.610;25.010;2023-10-08T04:58:34;100439.59;;;15.47;45.63
61682;BME280;47577;43.610;25.010;2023-10-08T05:01:03;100442.72;;;15.56;44.96
61682;BME280;47577;43.610;25.010;2023-10-08T05:03:50;100443.09;;;15.65;44.51
61682;BME280;47577;43.610;25.010;2023-10-08T05:06:36;100444.31;;;15.76;43.79
61682;BME280;47577;43.610;25.010;2023-10-08T05:09:05;100447.63;;;15.81;44.75
61682;BME280;47577;43.610;25.010;2023-10-08T05:11:38;100443.78;;;15.86;44.60
61682;BME280;47577;43.610;25.010;2023-10-08T05:14:21;100442.91;;;16.02;44.58
61682;BME280;47577;43.610;25.010;2023-10-08T05:16:59;100450.34;;;16.13;44.38
61682;BME280;47577;43.610;25.010;2023-10-08T05:19:38;100440.75;;;16.24;43.74
61682;BME280;47577;43.610;25.010;2023-10-08T05:22:12;100443.41;;;16.40;43.91
61682;BME280;47577;43.610;25.010;2023-10-08T05:24:58;100449.38;;;16.45;43.74
61682;BME280;47577;43.610;25.010;2023-10-08T05:27:38;100435.69;;;16.66;42.76
61682;BME280;47577;43.610;25.010;2023-10-08T05:30:28;100434.88;;;16.80;42.59
61682;BME280;47577;43.610;25.010;2023-10-08T05:33:19;100439.53;;;16.92;42.10
61682;BME280;47577;43.610;25.010;2023-10-08T05:35:51;100422.78;;;17.03;42.40
61682;BME280;47577;43.610;25.010;2023-10-08T05:38:31;100431.72;;;17.18;41.39
61682;BME280;47577;43.610;25.010;2023-10-08T05:40:59;100422.44;;;17.24;41.52
61682;BME280;47577;43.610;25.010;2023-10-08T05:43:27;100416.78;;;17.28;40.90
61682;BME280;47577;43.610;25.010;2023-10-08T05:46:14;100417.28;;;17.49;40.80
61682;BME280;47577;43.610;25.010;2023-10-08T05:48:56;100407.47;;;17.48;40.93
61682;BME280;47577;43.610;25.010;2023-10-08T05:51:41;100411.88;;;17.64;40.17
61682;BME280;47577;43.610;25.010;2023-10-08T05:54:31;100418.41;;;17.74;40.02
61682;BME280;47577;43.610;25.010;2023-10-08T05:57:01;100422.66;;;17.93;39.26
61682;BME280;47577;43.610;25.010;2023-10-08T06:05:11;100415.56;;;18.19;38.86
61682;BME280;47577;43.610;25.010;2023-10-08T06:07:47;100420.66;;;18.23;39.91
61682;BME280;47577;43.610;25.010;2023-10-08T06:10:16;100413.91;;;18.31;38.16
61682;BME280;47577;43.610;25.010;2023-10-08T06:13:07;100423.22;;;18.39;38.69
61682;BME280;47577;43.610;25.010;2023-10-08T06:15:56;100416.91;;;18.53;39.32
61682;BME280;47577;43.610;25.010;2023-10-08T06:18:27;100427.59;;;18.55;38.33
61682;BME280;47577;43.610;25.010;2023-10-08T06:20:53;100411.91;;;18.74;37.83
61682;BME280;47577;43.610;25.010;2023-10-08T06:23:25;100419.78;;;18.77;38.80
61682;BME280;47577;43.610;25.010;2023-10-08T06:25:52;100417.16;;;18.90;37.23
61682;BME280;47577;43.610;25.010;2023-10-08T06:28:31;100410.38;;;19.10;38.17
61682;BME280;47577;43.610;25.010;2023-10-08T06:31:01;100413.31;;;19.20;37.47
61682;BME280;47577;43.610;25.010;2023-10-08T06:33:28;100416.97;;;19.32;36.87
61682;BME280;47577;43.610;25.010;2023-10-08T06:36:02;100403.69;;;19.42;36.77
61682;BME280;47577;43.610;25.010;2023-10-08T06:38:31;100390.63;;;19.48;36.86
61682;BME280;47577;43.610;25.010;2023-10-08T06:41:01;100395.16;;;19.61;36.03
61682;BME280;47577;43.610;25.010;2023-10-08T06:43:37;100388.78;;;19.75;36.69
61682;BME280;47577;43.610;25.010;2023-10-08T06:46:03;100398.69;;;19.87;35.48
61682;BME280;47577;43.610;25.010;2023-10-08T06:48:33;100390.91;;;19.95;36.15
61682;BME280;47577;43.610;25.010;2023-10-08T06:51:00;100387.75;;;20.01;35.27
61682;BME280;47577;43.610;25.010;2023-10-08T06:53:33;100393.19;;;20.25;35.64
61682;BME280;47577;43.610;25.010;2023-10-08T06:56:00;100391.44;;;20.24;35.55
61682;BME280;47577;43.610;25.010;2023-10-08T06:58:32;100410.56;;;20.45;34.91
61682;BME280;47577;43.610;25.010;2023-10-08T07:00:58;100394.25;;;20.47;34.62
61682;BME280;47577;43.610;25.010;2023-10-08T07:03:24;100386.09;;;20.60;35.08
61682;BME280;47577;43.610;25.010;2023-10-08T07:05:51;100382.13;;;20.66;35.07
61682;BME280;47577;43.610;25.010;2023-10-08T07:08:24;100368.28;;;20.81;33.92
61682;BME280;47577;43.610;25.010;2023-10-08T07:10:50;100361.69;;;20.97;33.63
61682;BME280;47577;43.610;25.010;2023-10-08T07:13:17;100391.69;;;21.16;33.67
61682;BME280;47577;43.610;25.010;2023-10-08T07:15:44;100349.44;;;21.04;33.11
61682;BME280;47577;43.610;25.010;2023-10-08T07:18:11;100375.41;;;20.82;33.37
61682;BME280;47577;43.610;25.010;2023-10-08T07:20:44;100366.78;;;20.77;33.24
61682;BME280;47577;43.610;25.010;2023-10-08T07:23:11;100371.81;;;20.71;34.17
61682;BME280;47577;43.610;25.010;2023-10-08T07:25:57;100375.47;;;20.45;33.47
61682;BME280;47577;43.610;25.010;2023-10-08T07:28:40;100375.97;;;20.39;33.86
61682;BME280;47577;43.610;25.010;2023-10-08T07:31:22;100374.16;;;20.51;33.89
61682;BME280;47577;43.610;25.010;2023-10-08T07:33:55;100374.28;;;20.50;34.15
61682;BME280;47577;43.610;25.010;2023-10-08T07:36:27;100380.06;;;20.80;33.74
61682;BME280;47577;43.610;25.010;2023-10-08T07:38:56;100377.44;;;21.14;32.70
61682;BME280;47577;43.610;25.010;2023-10-08T07:41:22;100356.69;;;21.37;32.59
61682;BME280;47577;43.610;25.010;2023-10-08T07:43:48;100373.19;;;21.57;32.09
61682;BME280;47577;43.610;25.010;2023-10-08T07:46:25;100354.09;;;21.92;31.87
61682;BME280;47577;43.610;25.010;2023-10-08T07:48:54;100369.38;;;22.26;31.57
61682;BME280;47577;43.610;25.010;2023-10-08T07:51:20;100355.50;;;22.31;31.48
61682;BME280;47577;43.610;25.010;2023-10-08T07:53:52;100352.56;;;22.55;30.30
61682;BME280;47577;43.610;25.010;2023-10-08T07:56:24;100352.03;;;22.82;30.50
61682;BME280;47577;43.610;25.010;2023-10-08T07:58:53;100350.00;;;22.95;30.06
61682;BME280;47577;43.610;25.010;2023-10-08T08:01:24;100323.78;;;23.06;30.41
61682;BME280;47577;43.610;25.010;2023-10-08T08:03:51;100335.81;;;23.34;29.83
61682;BME280;47577;43.610;25.010;2023-10-08T08:06:17;100315.91;;;23.54;30.18
61682;BME280;47577;43.610;25.010;2023-10-08T08:08:42;100331.44;;;23.43;29.74
61682;BME280;47577;43.610;25.010;2023-10-08T08:11:09;100330.75;;;23.50;29.94
61682;BME280;47577;43.610;25.010;2023-10-08T08:13:43;100320.38;;;23.25;29.20
61682;BME280;47577;43.610;25.010;2023-10-08T08:16:11;100324.06;;;23.24;29.82
61682;BME280;47577;43.610;25.010;2023-10-08T08:18:47;100324.91;;;23.03;29.95
61682;BME280;47577;43.610;25.010;2023-10-08T08:21:18;100326.00;;;23.12;30.37
61682;BME280;47577;43.610;25.010;2023-10-08T08:23:48;100326.13;;;23.41;30.08
61682;BME280;47577;43.610;25.010;2023-10-08T08:26:23;100336.94;;;23.62;28.87
61682;BME280;47577;43.610;25.010;2023-10-08T08:29:01;100338.84;;;23.81;29.88
61682;BME280;47577;43.610;25.010;2023-10-08T08:31:30;100320.75;;;23.51;29.70
61682;BME280;47577;43.610;25.010;2023-10-08T08:34:02;100320.50;;;23.64;30.69
61682;BME280;47577;43.610;25.010;2023-10-08T08:36:39;100308.19;;;23.60;30.40
61682;BME280;47577;43.610;25.010;2023-10-08T08:39:12;100318.91;;;23.61;30.57
61682;BME280;47577;43.610;25.010;2023-10-08T08:42:00;100317.09;;;23.62;30.09
61682;BME280;47577;43.610;25.010;2023-10-08T08:44:31;100304.66;;;23.69;30.83
61682;BME280;47577;43.610;25.010;2023-10-08T08:46:59;100290.31;;;23.88;30.44
61682;BME280;47577;43.610;25.010;2023-10-08T08:49:32;100299.72;;;23.94;29.50
61682;BME280;47577;43.610;25.010;2023-10-08T08:51:59;100277.03;;;23.95;30.71
61682;BME280;47577;43.610;25.010;2023-10-08T08:54:27;100270.91;;;24.12;28.93
61682;BME280;47577;43.610;25.010;2023-10-08T08:56:56;100266.44;;;24.01;29.46
61682;BME280;47577;43.610;25.010;2023-10-08T08:59:26;100282.59;;;24.13;29.63
61682;BME280;47577;43.610;25.010;2023-10-08T09:01:53;100279.31;;;24.28;29.63
61682;BME280;47577;43.610;25.010;2023-10-08T09:04:28;100267.28;;;24.60;29.83
61682;BME280;47577;43.610;25.010;2023-10-08T09:06:55;100259.13;;;24.60;29.15
61682;BME280;47577;43.610;25.010;2023-10-08T09:09:21;100252.41;;;24.55;28.57
61682;BME280;47577;43.610;25.010;2023-10-08T09:11:52;100274.31;;;24.24;29.68
61682;BME280;47577;43.610;25.010;2023-10-08T09:14:21;100242.56;;;24.34;30.17
61682;BME280;47577;43.610;25.010;2023-10-08T09:16:48;100231.81;;;24.52;30.08
61682;BME280;47577;43.610;25.010;2023-10-08T09:19:15;100242.38;;;24.55;30.14
61682;BME280;47577;43.610;25.010;2023-10-08T09:24:33;100234.00;;;24.96;30.47
61682;BME280;47577;43.610;25.010;2023-10-08T09:27:05;100225.38;;;25.00;30.21
61682;BME280;47577;43.610;25.010;2023-10-08T09:29:32;100214.22;;;25.04;29.53
61682;BME280;47577;43.610;25.010;2023-10-08T09:32:03;100228.16;;;25.18;29.24
61682;BME280;47577;43.610;25.010;2023-10-08T09:34:32;100225.19;;;25.12;29.60
61682;BME280;47577;43.610;25.010;2023-10-08T09:37:00;100234.25;;;25.40;29.24
61682;BME280;47577;43.610;25.010;2023-10-08T09:39:30;100249.97;;;25.46;29.51
61682;BME280;47577;43.610;25.010;2023-10-08T09:42:03;100231.19;;;25.53;29.78
61682;BME280;47577;43.610;25.010;2023-10-08T09:44:31;100183.81;;;25.64;28.74
61682;BME280;47577;43.610;25.010;2023-10-08T09:47:04;100200.78;;;25.76;29.00
61682;BME280;47577;43.610;25.010;2023-10-08T09:52:06;100217.06;;;26.03;29.36
61682;BME280;47577;43.610;25.010;2023-10-08T09:54:42;100239.31;;;26.17;29.26
61682;BME280;47577;43.610;25.010;2023-10-08T09:57:09;100194.78;;;26.26;28.84
61682;BME280;47577;43.610;25.010;2023-10-08T09:59:35;100213.34;;;26.49;28.67
61682;BME280;47577;43.610;25.010;2023-10-08T10:02:04;100196.00;;;26.32;28.77
61682;BME280;47577;43.610;25.010;2023-10-08T10:04:33;100206.53;;;26.53;28.29
61682;BME280;47577;43.610;25.010;2023-10-08T10:07:09;100202.97;;;26.52;28.59
61682;BME280;47577;43.610;25.010;2023-10-08T10:09:39;100212.69;;;26.73;28.57
61682;BME280;47577;43.610;25.010;2023-10-08T10:12:05;100198.84;;;26.48;28.76
61682;BME280;47577;43.610;25.010;2023-10-08T10:15:01;100207.91;;;26.75;28.26
61682;BME280;47577;43.610;25.010;2023-10-08T10:17:27;100195.97;;;26.50;28.82
61682;BME280;47577;43.610;25.010;2023-10-08T10:19:59;100192.69;;;26.64;28.68
61682;BME280;47577;43.610;25.010;2023-10-08T10:22:32;100207.41;;;26.53;28.32
61682;BME280;47577;43.610;25.010;2023-10-08T10:25:01;100204.03;;;26.59;29.15
61682;BME280;47577;43.610;25.010;2023-10-08T10:30:30;100203.03;;;26.87;28.23
61682;BME280;47577;43.610;25.010;2023-10-08T10:32:55;100200.22;;;26.70;29.15
61682;BME280;47577;43.610;25.010;2023-10-08T10:35:25;100206.44;;;26.89;28.09
61682;BME280;47577;43.610;25.010;2023-10-08T10:37:53;100189.03;;;26.81;29.19
61682;BME280;47577;43.610;25.010;2023-10-08T10:40:21;100210.06;;;26.45;29.17
61682;BME280;47577;43.610;25.010;2023-10-08T10:43:08;100192.97;;;26.87;28.85
61682;BME280;47577;43.610;25.010;2023-10-08T10:45:45;100179.91;;;26.99;28.52
61682;BME280;47577;43.610;25.010;2023-10-08T10:48:13;100183.44;;;26.91;28.79
61682;BME280;47577;43.610;25.010;2023-10-08T10:50:46;100167.84;;;26.75;28.14
61682;BME280;47577;43.610;25.010;2023-10-08T10:53:39;100229.56;;;26.76;28.40
61682;BME280;47577;43.610;25.010;2023-10-08T10:56:23;100165.94;;;26.41;29.01
61682;BME280;47577;43.610;25.010;2023-10-08T10:59:05;100163.19;;;26.41;28.80
61682;BME280;47577;43.610;25.010;2023-10-08T11:01:45;100158.50;;;26.25;28.74
61682;BME280;47577;43.610;25.010;2023-10-08T11:04:35;100163.25;;;26.23;28.63
61682;BME280;47577;43.610;25.010;2023-10-08T11:07:17;100154.19;;;26.41;28.74
61682;BME280;47577;43.610;25.010;2023-10-08T11:09:46;100164.34;;;26.13;28.61
61682;BME280;47577;43.610;25.010;2023-10-08T11:12:13;100152.94;;;26.09;29.03
61682;BME280;47577;43.610;25.010;2023-10-08T11:14:46;100147.22;;;26.20;29.14
61682;BME280;47577;43.610;25.010;2023-10-08T11:17:13;100147.44;;;26.53;28.54
61682;BME280;47577;43.610;25.010;2023-10-08T11:19:44;100156.84;;;26.59;28.40
61682;BME280;47577;43.610;25.010;2023-10-08T11:22:15;100139.75;;;26.49;28.08
61682;BME280;47577;43.610;25.010;2023-10-08T11:24:45;100126.50;;;26.88;28.14
61682;BME280;47577;43.610;25.010;2023-10-08T11:27:16;100148.59;;;27.19;27.60
61682;BME280;47577;43.610;25.010;2023-10-08T11:29:51;100141.72;;;27.58;27.09
61682;BME280;47577;43.610;25.010;2023-10-08T11:32:22;100149.97;;;27.24;27.35
61682;BME280;47577;43.610;25.010;2023-10-08T11:35:00;100140.34;;;27.03;27.33
61682;BME280;47577;43.610;25.010;2023-10-08T11:37:30;100141.88;;;27.48;27.39
61682;BME280;47577;43.610;25.010;2023-10-08T11:39:59;100139.69;;;27.68;26.63
61682;BME280;47577;43.610;25.010;2023-10-08T11:42:25;100152.63;;;27.58;26.57
61682;BME280;47577;43.610;25.010;2023-10-08T11:45:11;100141.53;;;27.60;26.73
61682;BME280;47577;43.610;25.010;2023-10-08T11:47:46;100147.59;;;27.21;26.30
61682;BME280;47577;43.610;25.010;2023-10-08T11:50:23;100130.28;;;27.46;26.30
61682;BME280;47577;43.610;25.010;2023-10-08T11:52:59;100137.25;;;27.41;27.19
61682;BME280;47577;43.610;25.010;2023-10-08T11:55:29;100114.94;;;27.78;26.48
61682;BME280;47577;43.610;25.010;2023-10-08T11:57:55;100124.50;;;27.82;26.41
61682;BME280;47577;43.610;25.010;2023-10-08T12:00:22;100122.97;;;27.88;26.01
61682;BME280;47577;43.610;25.010;2023-10-08T12:02:51;100124.00;;;28.03;25.92
61682;BME280;47577;43.610;25.010;2023-10-08T12:05:21;100134.19;;;28.42;25.74
61682;BME280;47577;43.610;25.010;2023-10-08T12:07:51;100105.31;;;28.48;25.79
61682;BME280;47577;43.610;25.010;2023-10-08T12:10:19;100108.03;;;28.48;25.26
61682;BME280;47577;43.610;25.010;2023-10-08T12:12:51;100105.72;;;28.20;25.86
61682;BME280;47577;43.610;25.010;2023-10-08T12:15:21;100119.84;;;28.40;25.31
61682;BME280;47577;43.610;25.010;2023-10-08T12:17:50;100080.63;;;27.84;25.90
61682;BME280;47577;43.610;25.010;2023-10-08T12:20:40;100100.78;;;28.07;26.21
61682;BME280;47577;43.610;25.010;2023-10-08T12:23:13;100098.91;;;27.75;26.96
61682;BME280;47577;43.610;25.010;2023-10-08T12:25:52;100093.78;;;27.64;27.64
61682;BME280;47577;43.610;25.010;2023-10-08T12:28:18;100074.16;;;27.85;26.35
61682;BME280;47577;43.610;25.010;2023-10-08T12:30:45;100080.47;;;27.77;26.57
61682;BME280;47577;43.610;25.010;2023-10-08T12:33:11;100062.53;;;27.75;26.96
61682;BME280;47577;43.610;25.010;2023-10-08T12:35:40;100063.22;;;27.77;27.10
61682;BME280;47577;43.610;25.010;2023-10-08T12:38:06;100052.84;;;27.47;27.90
61682;BME280;47577;43.610;25.010;2023-10-08T12:40:32;100059.81;;;27.75;26.93
61682;BME280;47577;43.610;25.010;2023-10-08T12:43:16;100069.38;;;27.79;27.06
61682;BME280;47577;43.610;25.010;2023-10-08T12:45:48;100085.03;;;27.35;27.85
61682;BME280;47577;43.610;25.010;2023-10-08T12:48:27;100074.28;;;27.34;27.27
61682;BME280;47577;43.610;25.010;2023-10-08T12:50:55;100060.16;;;27.47;28.13
61682;BME280;47577;43.610;25.010;2023-10-08T12:53:27;100067.31;;;27.48;27.71
61682;BME280;47577;43.610;25.010;2023-10-08T12:56:02;100056.22;;;27.58;27.17
61682;BME280;47577;43.610;25.010;2023-10-08T12:58:35;100067.66;;;27.94;27.56
61682;BME280;47577;43.610;25.010;2023-10-08T13:01:07;100077.41;;;27.97;27.67
61682;BME280;47577;43.610;25.010;2023-10-08T13:03:36;100084.91;;;27.86;26.62
61682;BME280;47577;43.610;25.010;2023-10-08T13:06:09;100073.97;;;27.53;27.83
61682;BME280;47577;43.610;25.010;2023-10-08T13:08:50;100078.25;;;27.64;27.65
61682;BME280;47577;43.610;25.010;2023-10-08T13:11:19;100072.44;;;27.59;27.83
61682;BME280;47577;43.610;25.010;2023-10-08T13:13:52;100053.66;;;27.72;27.23
61682;BME280;47577;43.610;25.010;2023-10-08T13:16:19;100048.03;;;27.82;27.43
61682;BME280;47577;43.610;25.010;2023-10-08T13:18:49;100064.94;;;28.02;27.50
61682;BME280;47577;43.610;25.010;2023-10-08T13:21:16;100066.81;;;27.94;27.21